sensor_id;sensor_type;location;lat;lon;timestamp;P1;durP1;ratioP1;P2;durP2;ratioP2
11346;SDS011;5728;42.722;23.258;2024-01-30T00:02:00;8.17;;;4.90;;
11346;SDS011;5728;42.722;23.258;2024-01-30T00:04:27;11.47;;;5.40;;
11346;SDS011;5728;42.722;23.258;2024-01-30T00:06:56;7.33;;;5.17;;
11346;SDS011;5728;42.722;23.258;2024-01-30T00:09:23;10.13;;;5.20;;
11346;SDS011;5728;42.722;23.258;2024-01-30T00:11:49;5.73;;;4.17;;
11346;SDS011;5728;42.722;23.258;2024-01-30T00:14:16;7.23;;;4.37;;
11346;SDS011;5728;42.722;23.258;2024-01-30T00:16:44;7.03;;;5.00;;
11346;SDS011;5728;42.722;23.258;2024-01-30T00:19:11;4.60;;;3.83;;
11346;SDS011;5728;42.722;23.258;2024-01-30T00:21:38;6.87;;;4.43;;
11346;SDS011;5728;42.722;23.258;2024-01-30T00:24:06;8.43;;;4.57;;
11346;SDS011;5728;42.722;23.258;2024-01-30T00:26:33;5.67;;;4.43;;
11346;SDS011;5728;42.722;23.258;2024-01-30T00:29:00;6.80;;;4.40;;
11346;SDS011;5728;42.722;23.258;2024-01-30T00:31:27;7.77;;;4.53;;
11346;SDS011;5728;42.722;23.258;2024-01-30T00:33:54;9.10;;;4.97;;
11346;SDS011;5728;42.722;23.258;2024-01-30T00:36:21;5.90;;;4.50;;
11346;SDS011;5728;42.722;23.258;2024-01-30T00:38:48;9.17;;;5.27;;
11346;SDS011;5728;42.722;23.258;2024-01-30T00:41:18;8.53;;;4.93;;
11346;SDS011;5728;42.722;23.258;2024-01-30T00:43:45;7.53;;;4.93;;
11346;SDS011;5728;42.722;23.258;2024-01-30T00:46:12;8.40;;;5.27;;
11346;SDS011;5728;42.722;23.258;2024-01-30T00:48:39;7.40;;;5.03;;
11346;SDS011;5728;42.722;23.258;2024-01-30T00:51:07;8.73;;;4.97;;
11346;SDS011;5728;42.722;23.258;2024-01-30T00:53:34;9.90;;;5.60;;
11346;SDS011;5728;42.722;23.258;2024-01-30T00:56:01;13.00;;;7.27;;
11346;SDS011;5728;42.722;23.258;2024-01-30T00:58:30;11.50;;;6.50;;
11346;SDS011;5728;42.722;23.258;2024-01-30T01:00:57;15.53;;;7.93;;
11346;SDS011;5728;42.722;23.258;2024-01-30T01:03:24;9.43;;;6.20;;
11346;SDS011;5728;42.722;23.258;2024-01-30T01:05:51;9.87;;;5.90;;
11346;SDS011;5728;42.722;23.258;2024-01-30T01:08:18;9.60;;;4.80;;
11346;SDS011;5728;42.722;23.258;2024-01-30T01:10:45;5.63;;;4.43;;
11346;SDS011;5728;42.722;23.258;2024-01-30T01:13:12;5.87;;;4.13;;
11346;SDS011;5728;42.722;23.258;2024-01-30T01:15:40;6.67;;;4.40;;
11346;SDS011;5728;42.722;23.258;2024-01-30T01:18:07;4.97;;;3.67;;
11346;SDS011;5728;42.722;23.258;2024-01-30T01:20:34;4.73;;;3.77;;
11346;SDS011;5728;42.722;23.258;2024-01-30T01:23:01;5.33;;;3.87;;
11346;SDS011;5728;42.722;23.258;2024-01-30T01:25:28;5.97;;;3.80;;
11346;SDS011;5728;42.722;23.258;2024-01-30T01:27:55;7.53;;;4.07;;
11346;SDS011;5728;42.722;23.258;2024-01-30T01:30:22;4.40;;;3.43;;
11346;SDS011;5728;42.722;23.258;2024-01-30T01:32:52;4.33;;;3.67;;
11346;SDS011;5728;42.722;23.258;2024-01-30T01:35:22;5.37;;;3.90;;
11346;SDS011;5728;42.722;23.258;2024-01-30T01:37:50;7.70;;;3.90;;
11346;SDS011;5728;42.722;23.258;2024-01-30T01:40:20;5.97;;;3.83;;
11346;SDS011;5728;42.722;23.258;2024-01-30T01:42:49;5.23;;;3.37;;
11346;SDS011;5728;42.722;23.258;2024-01-30T01:45:16;5.20;;;3.63;;
11346;SDS011;5728;42.722;23.258;2024-01-30T01:47:43;6.63;;;3.73;;
11346;SDS011;5728;42.722;23.258;2024-01-30T01:50:13;4.87;;;3.80;;
11346;SDS011;5728;42.722;23.258;2024-01-30T01:52:43;5.20;;;3.90;;
11346;SDS011;5728;42.722;23.258;2024-01-30T01:55:13;6.30;;;3.70;;
11346;SDS011;5728;42.722;23.258;2024-01-30T01:57:42;4.50;;;3.60;;
11346;SDS011;5728;42.722;23.258;2024-01-30T02:00:10;6.87;;;4.13;;
11346;SDS011;5728;42.722;23.258;2024-01-30T02:02:38;6.13;;;4.33;;
11346;SDS011;5728;42.722;23.258;2024-01-30T02:05:05;7.00;;;4.73;;
11346;SDS011;5728;42.722;23.258;2024-01-30T02:07:34;6.90;;;3.70;;
11346;SDS011;5728;42.722;23.258;2024-01-30T02:10:01;5.73;;;4.13;;
11346;SDS011;5728;42.722;23.258;2024-01-30T02:12:29;5.63;;;4.67;;
11346;SDS011;5728;42.722;23.258;2024-01-30T02:14:56;7.17;;;4.57;;
11346;SDS011;5728;42.722;23.258;2024-01-30T02:17:23;7.37;;;4.73;;
11346;SDS011;5728;42.722;23.258;2024-01-30T02:19:50;5.93;;;4.53;;
11346;SDS011;5728;42.722;23.258;2024-01-30T02:22:18;7.93;;;4.67;;
11346;SDS011;5728;42.722;23.258;2024-01-30T02:24:45;6.93;;;4.53;;
11346;SDS011;5728;42.722;23.258;2024-01-30T02:27:12;5.93;;;3.60;;
11346;SDS011;5728;42.722;23.258;2024-01-30T02:29:39;7.70;;;4.77;;
11346;SDS011;5728;42.722;23.258;2024-01-30T02:32:06;7.93;;;4.77;;
11346;SDS011;5728;42.722;23.258;2024-01-30T02:34:33;5.97;;;4.00;;
11346;SDS011;5728;42.722;23.258;2024-01-30T02:37:00;7.37;;;4.57;;
11346;SDS011;5728;42.722;23.258;2024-01-30T02:39:29;6.00;;;4.07;;
11346;SDS011;5728;42.722;23.258;2024-01-30T02:41:56;7.90;;;4.63;;
11346;SDS011;5728;42.722;23.258;2024-01-30T02:44:22;9.77;;;4.73;;
11346;SDS011;5728;42.722;23.258;2024-01-30T02:46:49;8.23;;;4.80;;
11346;SDS011;5728;42.722;23.258;2024-01-30T02:49:19;6.37;;;4.50;;
11346;SDS011;5728;42.722;23.258;2024-01-30T02:51:46;5.93;;;4.10;;
11346;SDS011;5728;42.722;23.258;2024-01-30T02:54:13;5.10;;;4.03;;
11346;SDS011;5728;42.722;23.258;2024-01-30T02:56:41;7.53;;;4.00;;
11346;SDS011;5728;42.722;23.258;2024-01-30T02:59:08;5.40;;;4.33;;
11346;SDS011;5728;42.722;23.258;2024-01-30T03:01:42;6.87;;;3.87;;
11346;SDS011;5728;42.722;23.258;2024-01-30T03:04:09;6.57;;;4.00;;
11346;SDS011;5728;42.722;23.258;2024-01-30T03:06:36;4.37;;;3.63;;
11346;SDS011;5728;42.722;23.258;2024-01-30T03:09:03;3.73;;;3.30;;
11346;SDS011;5728;42.722;23.258;2024-01-30T03:11:30;7.43;;;4.33;;
11346;SDS011;5728;42.722;23.258;2024-01-30T03:13:58;6.23;;;4.10;;
11346;SDS011;5728;42.722;23.258;2024-01-30T03:16:25;5.20;;;3.53;;
11346;SDS011;5728;42.722;23.258;2024-01-30T03:18:52;6.93;;;3.50;;
11346;SDS011;5728;42.722;23.258;2024-01-30T03:21:19;4.37;;;3.47;;
11346;SDS011;5728;42.722;23.258;2024-01-30T03:23:46;5.03;;;3.50;;
11346;SDS011;5728;42.722;23.258;2024-01-30T03:26:13;4.50;;;3.03;;
11346;SDS011;5728;42.722;23.258;2024-01-30T03:28:41;3.63;;;2.93;;
11346;SDS011;5728;42.722;23.258;2024-01-30T03:31:09;5.97;;;3.40;;
11346;SDS011;5728;42.722;23.258;2024-01-30T03:33:36;3.57;;;3.23;;
11346;SDS011;5728;42.722;23.258;2024-01-30T03:36:04;5.30;;;3.13;;
11346;SDS011;5728;42.722;23.258;2024-01-30T03:38:32;4.83;;;3.37;;
11346;SDS011;5728;42.722;23.258;2024-01-30T03:40:59;8.83;;;3.03;;
11346;SDS011;5728;42.722;23.258;2024-01-30T03:43:26;4.17;;;3.30;;
11346;SDS011;5728;42.722;23.258;2024-01-30T03:45:53;5.60;;;3.80;;
11346;SDS011;5728;42.722;23.258;2024-01-30T03:48:21;5.00;;;3.40;;
11346;SDS011;5728;42.722;23.258;2024-01-30T03:50:48;3.47;;;2.97;;
11346;SDS011;5728;42.722;23.258;2024-01-30T03:53:15;4.47;;;2.80;;
11346;SDS011;5728;42.722;23.258;2024-01-30T03:55:42;5.50;;;3.37;;
11346;SDS011;5728;42.722;23.258;2024-01-30T03:58:09;3.27;;;2.93;;
11346;SDS011;5728;42.722;23.258;2024-01-30T04:00:36;3.80;;;3.13;;
11346;SDS011;5728;42.722;23.258;2024-01-30T04:03:03;5.70;;;3.33;;
11346;SDS011;5728;42.722;23.258;2024-01-30T04:05:32;4.57;;;3.17;;
11346;SDS011;5728;42.722;23.258;2024-01-30T04:07:59;4.27;;;3.03;;
11346;SDS011;5728;42.722;23.258;2024-01-30T04:10:27;5.77;;;3.57;;
11346;SDS011;5728;42.722;23.258;2024-01-30T04:12:54;5.87;;;3.47;;
11346;SDS011;5728;42.722;23.258;2024-01-30T04:15:21;4.67;;;3.30;;
11346;SDS011;5728;42.722;23.258;2024-01-30T04:17:48;5.10;;;3.20;;
11346;SDS011;5728;42.722;23.258;2024-01-30T04:20:16;4.40;;;3.37;;
11346;SDS011;5728;42.722;23.258;2024-01-30T04:22:44;9.83;;;3.57;;
11346;SDS011;5728;42.722;23.258;2024-01-30T04:25:11;4.43;;;3.10;;
11346;SDS011;5728;42.722;23.258;2024-01-30T04:27:39;5.53;;;3.20;;
11346;SDS011;5728;42.722;23.258;2024-01-30T04:30:06;4.73;;;3.13;;
11346;SDS011;5728;42.722;23.258;2024-01-30T04:32:35;3.80;;;3.17;;
11346;SDS011;5728;42.722;23.258;2024-01-30T04:35:02;4.57;;;3.60;;
11346;SDS011;5728;42.722;23.258;2024-01-30T04:37:30;4.97;;;3.20;;
11346;SDS011;5728;42.722;23.258;2024-01-30T04:39:58;4.17;;;3.53;;
11346;SDS011;5728;42.722;23.258;2024-01-30T04:42:25;6.20;;;4.07;;
11346;SDS011;5728;42.722;23.258;2024-01-30T04:44:52;5.17;;;3.77;;
11346;SDS011;5728;42.722;23.258;2024-01-30T04:47:19;6.67;;;4.03;;
11346;SDS011;5728;42.722;23.258;2024-01-30T04:49:46;6.23;;;3.23;;
11346;SDS011;5728;42.722;23.258;2024-01-30T04:52:13;3.77;;;3.23;;
11346;SDS011;5728;42.722;23.258;2024-01-30T04:54:40;4.60;;;3.57;;
11346;SDS011;5728;42.722;23.258;2024-01-30T04:57:09;6.57;;;3.70;;
11346;SDS011;5728;42.722;23.258;2024-01-30T04:59:37;7.43;;;4.17;;
11346;SDS011;5728;42.722;23.258;2024-01-30T05:02:04;7.37;;;4.17;;
11346;SDS011;5728;42.722;23.258;2024-01-30T05:04:32;7.90;;;4.90;;
11346;SDS011;5728;42.722;23.258;2024-01-30T05:06:59;7.33;;;5.03;;
11346;SDS011;5728;42.722;23.258;2024-01-30T05:09:25;9.17;;;5.13;;
11346;SDS011;5728;42.722;23.258;2024-01-30T05:11:52;9.87;;;5.43;;
11346;SDS011;5728;42.722;23.258;2024-01-30T05:14:21;11.07;;;5.17;;
11346;SDS011;5728;42.722;23.258;2024-01-30T05:16:48;10.97;;;5.47;;
11346;SDS011;5728;42.722;23.258;2024-01-30T05:19:15;8.70;;;4.63;;
11346;SDS011;5728;42.722;23.258;2024-01-30T05:21:42;7.80;;;4.60;;
11346;SDS011;5728;42.722;23.258;2024-01-30T05:24:09;9.77;;;4.17;;
11346;SDS011;5728;42.722;23.258;2024-01-30T05:26:36;6.40;;;4.00;;
11346;SDS011;5728;42.722;23.258;2024-01-30T05:29:05;5.43;;;3.70;;
11346;SDS011;5728;42.722;23.258;2024-01-30T05:31:34;7.13;;;3.87;;
11346;SDS011;5728;42.722;23.258;2024-01-30T05:34:01;13.67;;;4.47;;
11346;SDS011;5728;42.722;23.258;2024-01-30T05:36:28;6.70;;;3.93;;
11346;SDS011;5728;42.722;23.258;2024-01-30T05:38:55;5.83;;;3.97;;
11346;SDS011;5728;42.722;23.258;2024-01-30T05:41:22;7.00;;;4.00;;
11346;SDS011;5728;42.722;23.258;2024-01-30T05:43:49;6.83;;;4.37;;
11346;SDS011;5728;42.722;23.258;2024-01-30T05:46:16;5.97;;;4.50;;
11346;SDS011;5728;42.722;23.258;2024-01-30T05:48:44;5.13;;;3.47;;
11346;SDS011;5728;42.722;23.258;2024-01-30T05:51:11;6.70;;;3.87;;
11346;SDS011;5728;42.722;23.258;2024-01-30T05:53:39;6.57;;;4.33;;
11346;SDS011;5728;42.722;23.258;2024-01-30T05:56:06;9.83;;;4.80;;
11346;SDS011;5728;42.722;23.258;2024-01-30T05:58:33;5.13;;;3.63;;
11346;SDS011;5728;42.722;23.258;2024-01-30T06:01:02;4.80;;;3.63;;
11346;SDS011;5728;42.722;23.258;2024-01-30T06:05:57;7.13;;;4.57;;
11346;SDS011;5728;42.722;23.258;2024-01-30T06:08:24;8.33;;;5.70;;
11346;SDS011;5728;42.722;23.258;2024-01-30T06:10:51;5.50;;;3.93;;
11346;SDS011;5728;42.722;23.258;2024-01-30T06:13:19;7.67;;;4.07;;
11346;SDS011;5728;42.722;23.258;2024-01-30T06:15:46;7.00;;;3.60;;
11346;SDS011;5728;42.722;23.258;2024-01-30T06:18:13;5.53;;;3.80;;
11346;SDS011;5728;42.722;23.258;2024-01-30T06:20:40;5.57;;;4.07;;
11346;SDS011;5728;42.722;23.258;2024-01-30T06:23:08;7.47;;;3.63;;
11346;SDS011;5728;42.722;23.258;2024-01-30T06:25:35;3.73;;;3.17;;
11346;SDS011;5728;42.722;23.258;2024-01-30T06:28:03;9.50;;;4.43;;
11346;SDS011;5728;42.722;23.258;2024-01-30T06:30:30;4.73;;;3.60;;
11346;SDS011;5728;42.722;23.258;2024-01-30T06:32:57;5.63;;;4.17;;
11346;SDS011;5728;42.722;23.258;2024-01-30T06:35:24;5.23;;;3.53;;
11346;SDS011;5728;42.722;23.258;2024-01-30T06:37:50;5.03;;;3.60;;
11346;SDS011;5728;42.722;23.258;2024-01-30T06:40:19;5.57;;;4.20;;
11346;SDS011;5728;42.722;23.258;2024-01-30T06:42:46;10.33;;;4.27;;
11346;SDS011;5728;42.722;23.258;2024-01-30T06:45:13;6.30;;;4.13;;
11346;SDS011;5728;42.722;23.258;2024-01-30T06:47:40;6.70;;;4.30;;
11346;SDS011;5728;42.722;23.258;2024-01-30T06:50:08;4.43;;;3.47;;
11346;SDS011;5728;42.722;23.258;2024-01-30T06:52:35;9.63;;;4.80;;
11346;SDS011;5728;42.722;23.258;2024-01-30T06:55:02;6.63;;;3.77;;
11346;SDS011;5728;42.722;23.258;2024-01-30T06:57:30;5.43;;;3.63;;
11346;SDS011;5728;42.722;23.258;2024-01-30T06:59:57;5.23;;;3.73;;
11346;SDS011;5728;42.722;23.258;2024-01-30T07:02:24;6.80;;;4.33;;
11346;SDS011;5728;42.722;23.258;2024-01-30T07:04:51;9.10;;;4.67;;
11346;SDS011;5728;42.722;23.258;2024-01-30T07:07:18;6.63;;;5.03;;
11346;SDS011;5728;42.722;23.258;2024-01-30T07:09:46;4.93;;;3.63;;
11346;SDS011;5728;42.722;23.258;2024-01-30T07:12:14;8.63;;;4.47;;
11346;SDS011;5728;42.722;23.258;2024-01-30T07:14:43;6.13;;;3.93;;
11346;SDS011;5728;42.722;23.258;2024-01-30T07:17:10;5.60;;;3.67;;
11346;SDS011;5728;42.722;23.258;2024-01-30T07:19:37;9.93;;;4.10;;
11346;SDS011;5728;42.722;23.258;2024-01-30T07:22:04;4.73;;;3.73;;
11346;SDS011;5728;42.722;23.258;2024-01-30T07:24:31;6.13;;;4.40;;
11346;SDS011;5728;42.722;23.258;2024-01-30T07:26:58;4.40;;;3.47;;
11346;SDS011;5728;42.722;23.258;2024-01-30T07:29:25;7.87;;;3.60;;
11346;SDS011;5728;42.722;23.258;2024-01-30T07:31:53;8.47;;;4.80;;
11346;SDS011;5728;42.722;23.258;2024-01-30T07:34:20;6.53;;;4.50;;
11346;SDS011;5728;42.722;23.258;2024-01-30T07:36:47;5.77;;;3.90;;
11346;SDS011;5728;42.722;23.258;2024-01-30T07:39:14;3.87;;;3.13;;
11346;SDS011;5728;42.722;23.258;2024-01-30T07:41:41;7.13;;;3.87;;
11346;SDS011;5728;42.722;23.258;2024-01-30T07:44:08;6.97;;;3.50;;
11346;SDS011;5728;42.722;23.258;2024-01-30T07:46:35;3.60;;;3.13;;
11346;SDS011;5728;42.722;23.258;2024-01-30T07:49:04;6.47;;;3.60;;
11346;SDS011;5728;42.722;23.258;2024-01-30T07:51:30;5.23;;;4.03;;
11346;SDS011;5728;42.722;23.258;2024-01-30T07:53:58;10.50;;;4.27;;
11346;SDS011;5728;42.722;23.258;2024-01-30T07:56:24;9.77;;;3.30;;
11346;SDS011;5728;42.722;23.258;2024-01-30T07:58:51;5.33;;;3.00;;
11346;SDS011;5728;42.722;23.258;2024-01-30T08:01:19;3.43;;;3.00;;
11346;SDS011;5728;42.722;23.258;2024-01-30T08:03:46;3.70;;;2.90;;
11346;SDS011;5728;42.722;23.258;2024-01-30T08:06:14;3.70;;;3.03;;
11346;SDS011;5728;42.722;23.258;2024-01-30T08:08:41;5.10;;;3.70;;
11346;SDS011;5728;42.722;23.258;2024-01-30T08:11:08;3.23;;;2.90;;
11346;SDS011;5728;42.722;23.258;2024-01-30T08:13:35;5.13;;;3.40;;
11346;SDS011;5728;42.722;23.258;2024-01-30T08:16:02;6.13;;;3.50;;
11346;SDS011;5728;42.722;23.258;2024-01-30T08:18:29;5.83;;;3.40;;
11346;SDS011;5728;42.722;23.258;2024-01-30T08:20:56;6.00;;;3.00;;
11346;SDS011;5728;42.722;23.258;2024-01-30T08:23:25;8.20;;;4.40;;
11346;SDS011;5728;42.722;23.258;2024-01-30T08:25:52;5.30;;;3.97;;
11346;SDS011;5728;42.722;23.258;2024-01-30T08:28:19;6.23;;;3.27;;
11346;SDS011;5728;42.722;23.258;2024-01-30T08:30:46;5.37;;;3.47;;
11346;SDS011;5728;42.722;23.258;2024-01-30T08:33:13;10.87;;;3.83;;
11346;SDS011;5728;42.722;23.258;2024-01-30T08:35:40;6.90;;;3.50;;
11346;SDS011;5728;42.722;23.258;2024-01-30T08:38:07;4.07;;;3.30;;
11346;SDS011;5728;42.722;23.258;2024-01-30T08:40:36;4.70;;;3.33;;
11346;SDS011;5728;42.722;23.258;2024-01-30T08:43:03;4.50;;;3.30;;
11346;SDS011;5728;42.722;23.258;2024-01-30T08:45:30;4.23;;;2.70;;
11346;SDS011;5728;42.722;23.258;2024-01-30T08:47:57;4.63;;;3.43;;
11346;SDS011;5728;42.722;23.258;2024-01-30T08:50:24;5.47;;;3.33;;
11346;SDS011;5728;42.722;23.258;2024-01-30T08:52:51;3.77;;;3.00;;
11346;SDS011;5728;42.722;23.258;2024-01-30T08:55:18;5.17;;;3.20;;
11346;SDS011;5728;42.722;23.258;2024-01-30T08:57:46;3.83;;;3.40;;
11346;SDS011;5728;42.722;23.258;2024-01-30T09:00:14;11.73;;;3.40;;
11346;SDS011;5728;42.722;23.258;2024-01-30T09:02:41;3.70;;;3.07;;
11346;SDS011;5728;42.722;23.258;2024-01-30T09:05:08;4.93;;;3.20;;
11346;SDS011;5728;42.722;23.258;2024-01-30T09:07:36;4.53;;;3.27;;
11346;SDS011;5728;42.722;23.258;2024-01-30T09:10:03;5.37;;;3.40;;
11346;SDS011;5728;42.722;23.258;2024-01-30T09:12:31;6.17;;;4.27;;
11346;SDS011;5728;42.722;23.258;2024-01-30T09:14:59;7.10;;;4.53;;
11346;SDS011;5728;42.722;23.258;2024-01-30T09:17:26;18.30;;;8.37;;
11346;SDS011;5728;42.722;23.258;2024-01-30T09:19:53;15.43;;;6.60;;
11346;SDS011;5728;42.722;23.258;2024-01-30T09:22:20;7.57;;;5.10;;
11346;SDS011;5728;42.722;23.258;2024-01-30T09:24:47;11.03;;;7.17;;
11346;SDS011;5728;42.722;23.258;2024-01-30T09:27:14;7.43;;;4.83;;
11346;SDS011;5728;42.722;23.258;2024-01-30T09:29:41;6.80;;;4.27;;
11346;SDS011;5728;42.722;23.258;2024-01-30T09:32:09;5.10;;;3.83;;
11346;SDS011;5728;42.722;23.258;2024-01-30T09:34:36;4.37;;;3.40;;
11346;SDS011;5728;42.722;23.258;2024-01-30T09:37:04;4.33;;;2.97;;
11346;SDS011;5728;42.722;23.258;2024-01-30T09:39:31;4.77;;;2.50;;
11346;SDS011;5728;42.722;23.258;2024-01-30T09:42:00;3.40;;;2.70;;
11346;SDS011;5728;42.722;23.258;2024-01-30T09:44:31;3.60;;;2.83;;
11346;SDS011;5728;42.722;23.258;2024-01-30T09:47:01;4.00;;;2.73;;
11346;SDS011;5728;42.722;23.258;2024-01-30T09:49:32;5.27;;;3.17;;
11346;SDS011;5728;42.722;23.258;2024-01-30T09:52:00;3.57;;;2.60;;
11346;SDS011;5728;42.722;23.258;2024-01-30T09:54:28;4.83;;;3.13;;
11346;SDS011;5728;42.722;23.258;2024-01-30T09:56:56;3.50;;;3.00;;
11346;SDS011;5728;42.722;23.258;2024-01-30T09:59:23;5.33;;;3.17;;
11346;SDS011;5728;42.722;23.258;2024-01-30T10:01:50;8.23;;;3.47;;
11346;SDS011;5728;42.722;23.258;2024-01-30T10:04:17;3.10;;;2.60;;
11346;SDS011;5728;42.722;23.258;2024-01-30T10:06:46;4.23;;;2.80;;
11346;SDS011;5728;42.722;23.258;2024-01-30T10:09:13;10.50;;;2.63;;
11346;SDS011;5728;42.722;23.258;2024-01-30T10:11:40;4.73;;;2.83;;
11346;SDS011;5728;42.722;23.258;2024-01-30T10:14:07;3.90;;;2.67;;
11346;SDS011;5728;42.722;23.258;2024-01-30T10:16:34;2.97;;;2.30;;
11346;SDS011;5728;42.722;23.258;2024-01-30T10:19:01;4.67;;;2.53;;
11346;SDS011;5728;42.722;23.258;2024-01-30T10:21:29;2.80;;;2.47;;
11346;SDS011;5728;42.722;23.258;2024-01-30T10:23:57;3.03;;;2.40;;
11346;SDS011;5728;42.722;23.258;2024-01-30T10:26:25;3.83;;;2.80;;
11346;SDS011;5728;42.722;23.258;2024-01-30T10:28:54;10.43;;;3.50;;
11346;SDS011;5728;42.722;23.258;2024-01-30T10:31:21;6.17;;;3.00;;
11346;SDS011;5728;42.722;23.258;2024-01-30T10:33:49;2.63;;;2.37;;
11346;SDS011;5728;42.722;23.258;2024-01-30T10:36:16;2.90;;;2.60;;
11346;SDS011;5728;42.722;23.258;2024-01-30T10:38:44;7.20;;;2.53;;
11346;SDS011;5728;42.722;23.258;2024-01-30T10:41:15;3.70;;;2.70;;
11346;SDS011;5728;42.722;23.258;2024-01-30T10:43:50;6.10;;;3.57;;
11346;SDS011;5728;42.722;23.258;2024-01-30T10:46:30;6.13;;;3.20;;
11346;SDS011;5728;42.722;23.258;2024-01-30T10:48:59;4.43;;;2.93;;
11346;SDS011;5728;42.722;23.258;2024-01-30T10:51:27;3.13;;;2.53;;
11346;SDS011;5728;42.722;23.258;2024-01-30T10:53:55;6.47;;;2.37;;
11346;SDS011;5728;42.722;23.258;2024-01-30T10:56:24;3.03;;;2.37;;
11346;SDS011;5728;42.722;23.258;2024-01-30T10:58:52;7.07;;;2.77;;
11346;SDS011;5728;42.722;23.258;2024-01-30T11:01:20;3.10;;;2.60;;
11346;SDS011;5728;42.722;23.258;2024-01-30T11:03:50;3.13;;;2.50;;
11346;SDS011;5728;42.722;23.258;2024-01-30T11:06:18;3.73;;;2.40;;
11346;SDS011;5728;42.722;23.258;2024-01-30T11:08:45;3.23;;;2.90;;
11346;SDS011;5728;42.722;23.258;2024-01-30T11:11:12;6.87;;;2.67;;
11346;SDS011;5728;42.722;23.258;2024-01-30T11:13:40;3.40;;;2.67;;
11346;SDS011;5728;42.722;23.258;2024-01-30T11:16:08;3.90;;;2.90;;
11346;SDS011;5728;42.722;23.258;2024-01-30T11:18:37;3.87;;;3.13;;
11346;SDS011;5728;42.722;23.258;2024-01-30T11:21:04;4.73;;;2.97;;
11346;SDS011;5728;42.722;23.258;2024-01-30T11:23:33;4.97;;;2.83;;
11346;SDS011;5728;42.722;23.258;2024-01-30T11:26:01;3.37;;;2.83;;
11346;SDS011;5728;42.722;23.258;2024-01-30T11:28:31;10.13;;;3.27;;
11346;SDS011;5728;42.722;23.258;2024-01-30T11:31:04;4.73;;;2.80;;
11346;SDS011;5728;42.722;23.258;2024-01-30T11:33:32;4.87;;;2.80;;
11346;SDS011;5728;42.722;23.258;2024-01-30T11:35:59;4.47;;;2.90;;
11346;SDS011;5728;42.722;23.258;2024-01-30T11:38:27;4.93;;;3.00;;
11346;SDS011;5728;42.722;23.258;2024-01-30T11:40:55;11.13;;;3.00;;
11346;SDS011;5728;42.722;23.258;2024-01-30T11:43:22;6.90;;;2.93;;
11346;SDS011;5728;42.722;23.258;2024-01-30T11:45:50;3.20;;;2.90;;
11346;SDS011;5728;42.722;23.258;2024-01-30T11:48:18;11.30;;;3.50;;
11346;SDS011;5728;42.722;23.258;2024-01-30T11:50:46;5.90;;;3.37;;
11346;SDS011;5728;42.722;23.258;2024-01-30T11:53:13;4.33;;;2.90;;
11346;SDS011;5728;42.722;23.258;2024-01-30T11:55:40;6.63;;;3.97;;
11346;SDS011;5728;42.722;23.258;2024-01-30T11:58:07;4.93;;;3.33;;
11346;SDS011;5728;42.722;23.258;2024-01-30T12:00:34;5.10;;;2.97;;
11346;SDS011;5728;42.722;23.258;2024-01-30T12:03:01;5.40;;;3.27;;
11346;SDS011;5728;42.722;23.258;2024-01-30T12:05:29;7.70;;;3.50;;
11346;SDS011;5728;42.722;23.258;2024-01-30T12:07:56;5.27;;;3.00;;
11346;SDS011;5728;42.722;23.258;2024-01-30T12:10:24;3.20;;;2.60;;
11346;SDS011;5728;42.722;23.258;2024-01-30T12:12:52;5.97;;;2.53;;
11346;SDS011;5728;42.722;23.258;2024-01-30T12:15:21;4.03;;;3.07;;
11346;SDS011;5728;42.722;23.258;2024-01-30T12:17:48;4.33;;;2.93;;
11346;SDS011;5728;42.722;23.258;2024-01-30T12:20:18;5.60;;;3.17;;
11346;SDS011;5728;42.722;23.258;2024-01-30T12:22:48;3.33;;;2.60;;
11346;SDS011;5728;42.722;23.258;2024-01-30T12:25:16;4.77;;;3.40;;
11346;SDS011;5728;42.722;23.258;2024-01-30T12:27:44;5.00;;;3.03;;
11346;SDS011;5728;42.722;23.258;2024-01-30T12:30:15;4.00;;;3.03;;
11346;SDS011;5728;42.722;23.258;2024-01-30T12:32:43;4.40;;;3.20;;
11346;SDS011;5728;42.722;23.258;2024-01-30T12:35:11;5.03;;;3.37;;
11346;SDS011;5728;42.722;23.258;2024-01-30T12:37:38;5.20;;;3.60;;
11346;SDS011;5728;42.722;23.258;2024-01-30T12:40:08;4.30;;;3.10;;
11346;SDS011;5728;42.722;23.258;2024-01-30T12:42:36;5.83;;;3.63;;
11346;SDS011;5728;42.722;23.258;2024-01-30T12:45:04;3.83;;;3.40;;
11346;SDS011;5728;42.722;23.258;2024-01-30T12:47:31;5.73;;;3.63;;
11346;SDS011;5728;42.722;23.258;2024-01-30T12:49:59;4.23;;;3.47;;
11346;SDS011;5728;42.722;23.258;2024-01-30T12:52:26;4.37;;;3.80;;
11346;SDS011;5728;42.722;23.258;2024-01-30T12:54:53;5.43;;;3.80;;
11346;SDS011;5728;42.722;23.258;2024-01-30T12:57:22;3.63;;;3.10;;
11346;SDS011;5728;42.722;23.258;2024-01-30T12:59:49;5.13;;;3.40;;
11346;SDS011;5728;42.722;23.258;2024-01-30T13:02:16;5.07;;;3.83;;
11346;SDS011;5728;42.722;23.258;2024-01-30T13:04:43;4.60;;;3.70;;
11346;SDS011;5728;42.722;23.258;2024-01-30T13:07:10;5.70;;;3.53;;
11346;SDS011;5728;42.722;23.258;2024-01-30T13:09:37;4.00;;;3.47;;
11346;SDS011;5728;42.722;23.258;2024-01-30T13:12:04;5.77;;;3.67;;
11346;SDS011;5728;42.722;23.258;2024-01-30T13:14:33;9.93;;;5.70;;
11346;SDS011;5728;42.722;23.258;2024-01-30T13:17:00;35.13;;;15.17;;
11346;SDS011;5728;42.722;23.258;2024-01-30T13:19:27;28.83;;;12.27;;
11346;SDS011;5728;42.722;23.258;2024-01-30T13:21:54;9.80;;;5.60;;
11346;SDS011;5728;42.722;23.258;2024-01-30T13:24:21;9.67;;;4.67;;
11346;SDS011;5728;42.722;23.258;2024-01-30T13:26:48;4.33;;;3.30;;
11346;SDS011;5728;42.722;23.258;2024-01-30T13:29:15;4.57;;;3.20;;
11346;SDS011;5728;42.722;23.258;2024-01-30T13:31:43;4.77;;;3.80;;
11346;SDS011;5728;42.722;23.258;2024-01-30T13:34:12;6.13;;;3.37;;
11346;SDS011;5728;42.722;23.258;2024-01-30T13:36:39;4.23;;;3.10;;
11346;SDS011;5728;42.722;23.258;2024-01-30T13:39:06;9.63;;;3.70;;
11346;SDS011;5728;42.722;23.258;2024-01-30T13:41:35;10.10;;;4.07;;
11346;SDS011;5728;42.722;23.258;2024-01-30T13:44:02;5.83;;;4.20;;
11346;SDS011;5728;42.722;23.258;2024-01-30T13:46:29;7.23;;;4.00;;
11346;SDS011;5728;42.722;23.258;2024-01-30T13:48:58;5.47;;;3.40;;
11346;SDS011;5728;42.722;23.258;2024-01-30T13:51:25;3.87;;;3.13;;
11346;SDS011;5728;42.722;23.258;2024-01-30T13:53:52;9.37;;;3.37;;
11346;SDS011;5728;42.722;23.258;2024-01-30T13:56:19;5.00;;;3.53;;
11346;SDS011;5728;42.722;23.258;2024-01-30T13:58:47;6.37;;;3.53;;
11346;SDS011;5728;42.722;23.258;2024-01-30T14:01:15;4.73;;;3.73;;
11346;SDS011;5728;42.722;23.258;2024-01-30T14:03:42;5.10;;;4.00;;
11346;SDS011;5728;42.722;23.258;2024-01-30T14:06:10;5.10;;;3.90;;
11346;SDS011;5728;42.722;23.258;2024-01-30T14:08:37;8.07;;;4.13;;
11346;SDS011;5728;42.722;23.258;2024-01-30T14:11:04;6.03;;;3.93;;
11346;SDS011;5728;42.722;23.258;2024-01-30T14:13:32;6.77;;;4.40;;
11346;SDS011;5728;42.722;23.258;2024-01-30T14:15:59;6.73;;;4.73;;
11346;SDS011;5728;42.722;23.258;2024-01-30T14:18:26;5.73;;;4.50;;
11346;SDS011;5728;42.722;23.258;2024-01-30T14:20:53;5.87;;;3.73;;
11346;SDS011;5728;42.722;23.258;2024-01-30T14:23:22;6.50;;;4.33;;
11346;SDS011;5728;42.722;23.258;2024-01-30T14:25:49;6.87;;;4.37;;
11346;SDS011;5728;42.722;23.258;2024-01-30T14:28:17;5.70;;;5.15;;
11346;SDS011;5728;42.722;23.258;2024-01-30T14:30:44;7.90;;;4.93;;
11346;SDS011;5728;42.722;23.258;2024-01-30T14:33:12;7.03;;;4.90;;
11346;SDS011;5728;42.722;23.258;2024-01-30T14:35:39;7.23;;;4.40;;
11346;SDS011;5728;42.722;23.258;2024-01-30T14:38:06;5.70;;;4.17;;
11346;SDS011;5728;42.722;23.258;2024-01-30T14:40:35;6.43;;;4.60;;
11346;SDS011;5728;42.722;23.258;2024-01-30T14:43:02;6.17;;;4.20;;
11346;SDS011;5728;42.722;23.258;2024-01-30T14:45:29;5.70;;;4.07;;
11346;SDS011;5728;42.722;23.258;2024-01-30T14:47:57;5.63;;;3.60;;
11346;SDS011;5728;42.722;23.258;2024-01-30T14:50:25;6.53;;;4.03;;
11346;SDS011;5728;42.722;23.258;2024-01-30T14:52:52;7.27;;;3.90;;